createdAt,value
2022-09-15T00:02:18.442Z,15.20
2022-09-15T00:04:44.861Z,15.20
2022-09-15T00:07:10.981Z,15.10
2022-09-15T00:09:37.121Z,15.00
2022-09-15T00:12:03.416Z,14.90
2022-09-15T00:14:29.446Z,14.80
2022-09-15T00:16:56.119Z,14.80
2022-09-15T00:19:22.444Z,14.70
2022-09-15T00:21:48.501Z,14.80
2022-09-15T00:24:14.716Z,14.80
2022-09-15T00:26:41.086Z,14.70
2022-09-15T00:29:07.426Z,14.70
2022-09-15T00:31:33.896Z,14.70
2022-09-15T00:34:02.109Z,14.70
2022-09-15T00:36:28.548Z,14.70
2022-09-15T00:38:55.040Z,14.60
2022-09-15T00:41:22.923Z,14.60
2022-09-15T00:44:02.465Z,14.70
2022-09-15T00:46:33.855Z,14.70
2022-09-15T00:49:27.415Z,14.80
2022-09-15T00:52:11.180Z,14.70
2022-09-15T00:55:02.452Z,14.80
2022-09-15T00:57:55.566Z,14.80
2022-09-15T01:00:24.102Z,14.70
2022-09-15T01:02:50.847Z,14.70
2022-09-15T01:05:34.013Z,14.60
2022-09-15T01:08:23.397Z,14.50
2022-09-15T01:10:51.372Z,14.50
2022-09-15T01:13:17.485Z,14.30
2022-09-15T01:15:52.261Z,14.30
2022-09-15T01:18:30.829Z,14.20
2022-09-15T01:21:09.329Z,14.20
2022-09-15T01:24:04.689Z,14.10
2022-09-15T01:27:40.540Z,14.10
2022-09-15T01:30:01.962Z,14.10
2022-09-15T01:33:03.646Z,14.10
2022-09-15T01:35:51.653Z,14.10
2022-09-15T01:38:53.325Z,14.10
2022-09-15T01:41:36.994Z,14.00
2022-09-15T01:44:22.666Z,14.10
2022-09-15T01:46:59.782Z,14.10
2022-09-15T01:49:30.547Z,14.10
2022-09-15T01:51:56.603Z,14.20
2022-09-15T01:54:34.076Z,14.20
2022-09-15T01:57:01.820Z,14.30
2022-09-15T01:59:28.078Z,14.20
2022-09-15T02:02:03.191Z,14.30
2022-09-15T02:04:46.284Z,14.30
2022-09-15T02:07:23.294Z,14.30
2022-09-15T02:09:55.194Z,14.30
2022-09-15T02:12:37.240Z,14.30
2022-09-15T02:15:15.772Z,14.40
2022-09-15T02:17:49.830Z,14.40
2022-09-15T02:20:38.996Z,14.40
2022-09-15T02:23:13.277Z,14.40
2022-09-15T02:25:52.767Z,14.40
2022-09-15T02:28:23.296Z,14.40
2022-09-15T02:30:51.060Z,14.40
2022-09-15T02:33:20.480Z,14.40
2022-09-15T02:35:47.375Z,14.40
2022-09-15T02:38:14.432Z,14.40
2022-09-15T02:40:43.751Z,14.50
2022-09-15T02:43:16.847Z,14.50
2022-09-15T02:45:43.443Z,14.50
2022-09-15T02:48:09.571Z,14.50
2022-09-15T02:50:37.543Z,14.50
2022-09-15T02:53:05.178Z,14.50
2022-09-15T02:55:31.753Z,14.50
2022-09-15T02:57:59.197Z,14.60
2022-09-15T03:00:27.612Z,14.60
2022-09-15T03:02:54.529Z,14.60
2022-09-15T03:05:24.022Z,14.60
2022-09-15T03:07:51.549Z,14.60
2022-09-15T03:10:17.713Z,14.60
2022-09-15T03:12:49.045Z,14.60
2022-09-15T03:15:18.268Z,14.60
2022-09-15T03:17:46.305Z,14.60
2022-09-15T03:20:16.144Z,14.50
2022-09-15T03:22:43.223Z,14.50
2022-09-15T03:25:10.248Z,14.50
2022-09-15T03:27:37.422Z,14.50
2022-09-15T03:30:05.430Z,14.50
2022-09-15T03:32:32.030Z,14.50
2022-09-15T03:34:58.799Z,14.50
2022-09-15T03:37:25.693Z,14.50
2022-09-15T03:39:51.894Z,14.40
2022-09-15T03:42:18.932Z,14.50
2022-09-15T03:44:45.105Z,14.50
2022-09-15T03:47:11.197Z,14.50
2022-09-15T03:49:38.134Z,14.50
2022-09-15T03:52:04.252Z,14.60
2022-09-15T03:54:30.832Z,14.60
2022-09-15T03:56:56.901Z,14.60
2022-09-15T03:59:23.029Z,14.60
2022-09-15T04:01:50.217Z,14.60
2022-09-15T04:04:16.805Z,14.60
2022-09-15T04:06:44.477Z,14.70
2022-09-15T04:09:11.092Z,14.70
2022-09-15T04:11:38.752Z,14.70
2022-09-15T04:14:04.817Z,14.70
2022-09-15T04:16:31.236Z,14.70
2022-09-15T04:18:57.451Z,14.70
2022-09-15T04:21:25.728Z,14.80
2022-09-15T04:23:53.588Z,14.70
2022-09-15T04:26:32.028Z,14.70
2022-09-15T04:29:03.621Z,14.70
2022-09-15T04:31:30.928Z,14.70
2022-09-15T04:33:57.190Z,14.70
2022-09-15T04:36:25.357Z,14.70
2022-09-15T04:38:52.259Z,14.70
2022-09-15T04:41:18.777Z,14.80
2022-09-15T04:43:45.626Z,14.80
2022-09-15T04:46:13.326Z,14.80
2022-09-15T04:48:39.509Z,14.70
2022-09-15T04:51:09.730Z,14.70
2022-09-15T04:53:36.476Z,14.70
2022-09-15T04:56:17.176Z,14.70
2022-09-15T04:58:45.889Z,14.70
2022-09-15T05:01:15.192Z,14.70
2022-09-15T05:03:41.804Z,14.70
2022-09-15T05:06:10.715Z,14.70
2022-09-15T05:08:37.098Z,14.70
2022-09-15T05:11:09.390Z,14.70
2022-09-15T05:13:36.014Z,14.70
2022-09-15T05:16:13.379Z,14.70
2022-09-15T05:18:41.662Z,14.80
2022-09-15T05:21:10.433Z,14.80
2022-09-15T05:23:37.254Z,14.80
2022-09-15T05:26:06.644Z,14.80
2022-09-15T05:28:35.196Z,14.70
2022-09-15T05:31:06.326Z,14.70
2022-09-15T05:33:34.228Z,14.70
2022-09-15T05:36:00.404Z,14.70
2022-09-15T05:38:29.626Z,14.70
2022-09-15T05:41:02.196Z,14.70
2022-09-15T05:43:31.416Z,14.70
2022-09-15T05:45:57.537Z,14.80
2022-09-15T05:48:25.443Z,14.80
2022-09-15T05:50:53.792Z,14.80
2022-09-15T05:53:20.717Z,14.80
2022-09-15T05:55:47.053Z,14.90
2022-09-15T05:58:14.573Z,14.90
2022-09-15T06:00:41.871Z,14.90
2022-09-15T06:03:14.040Z,15.00
2022-09-15T06:05:40.297Z,15.00
2022-09-15T06:08:06.703Z,15.00
2022-09-15T06:10:32.789Z,15.00
2022-09-15T06:12:58.835Z,15.10
2022-09-15T06:15:24.871Z,15.20
2022-09-15T06:17:51.079Z,15.40
2022-09-15T06:20:18.202Z,15.40
2022-09-15T06:22:45.247Z,15.50
2022-09-15T06:25:12.593Z,15.50
2022-09-15T06:27:39.809Z,15.50
2022-09-15T06:30:07.464Z,15.50
2022-09-15T06:32:33.735Z,15.50
2022-09-15T06:34:59.919Z,15.50
2022-09-15T06:37:26.045Z,15.50
2022-09-15T06:39:52.084Z,15.50
2022-09-15T06:42:18.129Z,15.50
2022-09-15T06:44:44.230Z,15.50
2022-09-15T06:47:13.750Z,15.60
2022-09-15T06:49:39.816Z,15.70
2022-09-15T06:52:06.112Z,16.00
2022-09-15T06:54:32.368Z,16.80
2022-09-15T06:56:58.432Z,16.80
2022-09-15T06:59:24.616Z,16.70
2022-09-15T07:01:54.325Z,16.60
2022-09-15T07:04:21.464Z,16.50
2022-09-15T07:06:47.914Z,16.40
2022-09-15T07:09:14.172Z,16.40
2022-09-15T07:11:40.363Z,16.30
2022-09-15T07:14:06.621Z,16.20
2022-09-15T07:16:33.448Z,16.20
2022-09-15T07:19:01.687Z,16.20
2022-09-15T07:21:28.019Z,16.20
2022-09-15T07:23:56.609Z,16.20
2022-09-15T07:26:25.168Z,16.30
2022-09-15T07:28:55.176Z,16.40
2022-09-15T07:31:24.053Z,16.50
2022-09-15T07:33:50.425Z,16.70
2022-09-15T07:36:17.265Z,16.80
2022-09-15T07:38:45.272Z,17.10
2022-09-15T07:41:22.839Z,17.20
2022-09-15T07:43:50.877Z,17.40
2022-09-15T07:46:18.392Z,17.50
2022-09-15T07:48:46.593Z,17.60
2022-09-15T07:51:12.879Z,17.70
2022-09-15T07:53:39.039Z,17.90
2022-09-15T07:56:05.454Z,18.20
2022-09-15T07:58:33.023Z,18.40
2022-09-15T08:01:04.196Z,18.40
2022-09-15T08:03:30.941Z,18.40
2022-09-15T08:05:58.623Z,18.40
2022-09-15T08:08:25.098Z,18.40
2022-09-15T08:10:52.314Z,18.40
2022-09-15T08:13:18.507Z,18.40
2022-09-15T08:15:44.813Z,18.40
2022-09-15T08:18:11.297Z,18.40
2022-09-15T08:20:43.979Z,18.50
2022-09-15T08:23:10.650Z,18.60
2022-09-15T08:25:38.101Z,18.70
2022-09-15T08:28:04.171Z,18.80
2022-09-15T08:30:30.625Z,18.80
2022-09-15T08:32:57.001Z,18.80
2022-09-15T08:35:23.092Z,18.90
2022-09-15T08:37:50.124Z,18.90
2022-09-15T08:40:22.930Z,18.90
2022-09-15T08:42:53.282Z,18.80
2022-09-15T08:45:29.924Z,18.80
2022-09-15T08:48:03.626Z,18.70
2022-09-15T08:50:40.154Z,18.60
2022-09-15T08:53:26.744Z,18.50
2022-09-15T08:55:55.103Z,18.50
2022-09-15T08:58:37.438Z,18.50
2022-09-15T09:01:22.356Z,18.50
2022-09-15T09:04:10.593Z,18.60
2022-09-15T09:07:01.148Z,18.60
2022-09-15T09:10:06.319Z,18.60
2022-09-15T09:12:44.213Z,18.80
2022-09-15T09:15:43.492Z,19.00
2022-09-15T09:18:46.085Z,19.10
2022-09-15T09:21:12.104Z,18.90
2022-09-15T09:23:49.115Z,18.80
2022-09-15T09:26:15.340Z,18.60
2022-09-15T09:28:49.574Z,18.60
2022-09-15T09:31:22.248Z,18.60
2022-09-15T09:34:16.331Z,18.60
2022-09-15T09:36:42.417Z,18.90
2022-09-15T09:39:14.521Z,19.30
2022-09-15T09:41:41.864Z,19.80
2022-09-15T09:44:13.453Z,20.30
2022-09-15T09:46:42.091Z,20.80
2022-09-15T09:49:18.004Z,21.20
2022-09-15T09:51:51.546Z,21.30
2022-09-15T09:54:20.060Z,21.20
2022-09-15T09:56:48.424Z,21.30
2022-09-15T09:59:46.473Z,21.30
2022-09-15T10:02:28.185Z,21.60
2022-09-15T10:05:07.314Z,21.70
2022-09-15T10:07:39.276Z,21.60
2022-09-15T10:10:06.040Z,21.20
2022-09-15T10:12:39.976Z,20.70
2022-09-15T10:15:19.120Z,20.50
2022-09-15T10:17:47.753Z,20.40
2022-09-15T10:20:39.305Z,20.40
2022-09-15T10:23:06.988Z,20.50
2022-09-15T10:25:57.692Z,20.90
2022-09-15T10:28:25.177Z,21.30
2022-09-15T10:31:25.419Z,22.00
2022-09-15T10:33:52.028Z,23.00
2022-09-15T10:36:19.481Z,23.60
2022-09-15T10:38:48.671Z,24.00
2022-09-15T10:41:21.579Z,24.40
2022-09-15T10:44:08.944Z,24.50
2022-09-15T10:46:39.205Z,24.60
2022-09-15T10:49:36.103Z,25.10
2022-09-15T10:52:33.583Z,26.20
2022-09-15T10:55:36.821Z,27.70
2022-09-15T10:58:39.856Z,27.50
2022-09-15T11:01:17.486Z,26.80
2022-09-15T11:03:49.358Z,26.50
2022-09-15T11:06:15.453Z,26.10
2022-09-15T11:09:00.476Z,26.00
2022-09-15T11:11:38.580Z,26.20
2022-09-15T11:14:15.786Z,26.20
2022-09-15T11:16:59.915Z,25.60
2022-09-15T11:19:47.465Z,26.30
2022-09-15T11:22:18.912Z,27.60
2022-09-15T11:24:56.446Z,29.00
2022-09-15T11:27:54.984Z,27.90
2022-09-15T11:30:24.036Z,26.40
2022-09-15T11:33:15.911Z,25.30
2022-09-15T11:35:47.229Z,24.50
2022-09-15T11:38:23.792Z,23.80
2022-09-15T11:41:15.630Z,23.40
2022-09-15T11:43:45.409Z,23.00
2022-09-15T11:46:17.385Z,23.90
2022-09-15T11:48:54.457Z,26.50
2022-09-15T11:51:24.518Z,28.60
2022-09-15T11:54:00.561Z,30.20
2022-09-15T11:56:39.726Z,31.40
2022-09-15T11:59:21.957Z,32.10
2022-09-15T12:02:09.483Z,32.90
2022-09-15T12:04:46.925Z,33.50
2022-09-15T12:07:23.430Z,34.00
2022-09-15T12:09:49.628Z,34.50
2022-09-15T12:12:19.495Z,32.70
2022-09-15T12:14:47.541Z,31.90
2022-09-15T12:17:22.562Z,31.10
2022-09-15T12:20:02.593Z,29.50
2022-09-15T12:22:35.874Z,28.20
2022-09-15T12:25:11.162Z,27.10
2022-09-15T12:27:37.446Z,27.40
2022-09-15T12:30:05.479Z,28.10
2022-09-15T12:32:35.648Z,27.80
2022-09-15T12:35:11.523Z,27.00
2022-09-15T12:38:00.037Z,26.70
2022-09-15T12:40:35.179Z,28.20
2022-09-15T12:43:03.933Z,27.60
2022-09-15T12:45:33.380Z,26.60
2022-09-15T12:48:11.557Z,25.70
2022-09-15T12:50:40.444Z,24.80
2022-09-15T12:53:17.693Z,24.00
2022-09-15T12:56:11.274Z,23.40
2022-09-15T12:58:41.336Z,23.10
2022-09-15T13:01:43.096Z,22.70
2022-09-15T13:04:09.401Z,22.50
2022-09-15T13:06:35.644Z,22.30
2022-09-15T13:09:01.680Z,22.30
2022-09-15T13:11:36.928Z,22.40
2022-09-15T13:14:03.199Z,22.60
2022-09-15T13:16:45.629Z,22.90
2022-09-15T13:19:40.838Z,23.10
2022-09-15T13:22:30.390Z,23.00
2022-09-15T13:25:17.546Z,22.90
2022-09-15T13:27:47.462Z,22.80
2022-09-15T13:30:29.907Z,22.60
2022-09-15T13:33:11.469Z,22.70
2022-09-15T13:35:43.152Z,22.90
2022-09-15T13:38:37.070Z,23.20
2022-09-15T13:41:36.560Z,23.10
2022-09-15T13:44:36.586Z,23.00
2022-09-15T13:50:05.893Z,25.00
2022-09-15T13:52:53.546Z,26.20
2022-09-15T13:55:27.295Z,26.10
2022-09-15T14:00:48.528Z,24.90
2022-09-15T14:03:20.010Z,24.20
2022-09-15T14:05:49.147Z,23.70
2022-09-15T14:08:37.975Z,23.10
2022-09-15T14:11:07.949Z,22.50
2022-09-15T14:13:36.513Z,22.10
2022-09-15T14:16:19.042Z,21.80
2022-09-15T14:18:46.564Z,21.60
2022-09-15T14:21:24.783Z,21.50
2022-09-15T14:23:54.559Z,21.60
2022-09-15T14:26:24.013Z,21.80
2022-09-15T14:29:00.718Z,22.20
2022-09-15T14:31:40.488Z,22.50
2022-09-15T14:34:20.005Z,23.00
2022-09-15T14:36:53.976Z,23.20
2022-09-15T14:39:22.307Z,23.30
2022-09-15T14:41:49.575Z,23.20
2022-09-15T14:47:21.130Z,22.60
2022-09-15T14:49:48.129Z,22.40
2022-09-15T14:52:27.445Z,22.30
2022-09-15T14:55:01.689Z,22.20
2022-09-15T14:57:32.893Z,22.20
2022-09-15T15:00:12.541Z,22.30
2022-09-15T15:02:44.907Z,22.30
2022-09-15T15:05:22.612Z,22.10
2022-09-15T15:07:49.850Z,22.00
2022-09-15T15:10:34.897Z,22.00
2022-09-15T15:13:08.323Z,21.80
2022-09-15T15:15:37.481Z,21.60
2022-09-15T15:18:28.206Z,21.50
2022-09-15T15:20:57.501Z,21.40
2022-09-15T15:23:25.292Z,21.40
2022-09-15T15:25:52.456Z,21.30
2022-09-15T15:28:33.472Z,21.40
2022-09-15T15:31:15.527Z,21.60
2022-09-15T15:33:47.520Z,21.60
2022-09-15T15:36:13.678Z,21.50
2022-09-15T15:38:50.167Z,21.40
2022-09-15T15:41:31.968Z,21.40
2022-09-15T15:44:14.679Z,21.20
2022-09-15T15:46:50.587Z,21.00
2022-09-15T15:49:18.561Z,20.80
2022-09-15T15:51:44.619Z,20.60
2022-09-15T15:54:11.121Z,20.50
2022-09-15T15:56:38.032Z,20.40
2022-09-15T15:59:05.081Z,20.20
2022-09-15T16:01:31.722Z,20.10
2022-09-15T16:03:58.046Z,20.00
2022-09-15T16:06:24.344Z,19.80
2022-09-15T16:08:51.327Z,19.70
2022-09-15T16:11:18.516Z,19.70
2022-09-15T16:13:44.659Z,19.60
2022-09-15T16:16:17.950Z,19.50
2022-09-15T16:18:44.301Z,19.50
2022-09-15T16:21:41.427Z,19.50
2022-09-15T16:24:13.985Z,19.40
2022-09-15T16:26:40.850Z,19.40
2022-09-15T16:29:07.063Z,19.30
2022-09-15T16:31:34.158Z,19.20
2022-09-15T16:34:00.430Z,19.20
2022-09-15T16:36:27.736Z,19.10
2022-09-15T16:38:54.008Z,19.10
2022-09-15T16:41:22.993Z,19.00
2022-09-15T16:43:49.498Z,18.90
2022-09-15T16:46:17.244Z,18.90
2022-09-15T16:48:43.567Z,18.80
2022-09-15T16:51:27.404Z,18.70
2022-09-15T16:53:57.158Z,18.60
2022-09-15T16:56:23.371Z,18.60
2022-09-15T16:58:52.270Z,18.50
2022-09-15T17:01:21.620Z,18.40
2022-09-15T17:03:48.238Z,18.30
2022-09-15T17:06:17.035Z,18.20
2022-09-15T17:08:43.579Z,18.20
2022-09-15T17:11:16.848Z,18.10
2022-09-15T17:13:43.876Z,18.10
2022-09-15T17:16:12.101Z,18.10
2022-09-15T17:18:38.330Z,18.10
2022-09-15T17:21:04.829Z,18.00
2022-09-15T17:23:36.202Z,18.00
2022-09-15T17:26:04.001Z,17.90
2022-09-15T17:28:35.762Z,17.90
2022-09-15T17:31:11.797Z,17.80
2022-09-15T17:33:38.317Z,17.80
2022-09-15T17:36:04.495Z,17.80
2022-09-15T17:38:31.184Z,17.70
2022-09-15T17:40:58.286Z,17.60
2022-09-15T17:43:26.861Z,17.50
2022-09-15T17:45:54.077Z,17.40
2022-09-15T17:48:20.463Z,17.30
2022-09-15T17:50:48.055Z,17.10
2022-09-15T17:53:20.474Z,17.00
2022-09-15T17:55:46.737Z,16.90
2022-09-15T17:58:13.006Z,16.80
2022-09-15T18:00:41.745Z,16.80
2022-09-15T18:03:30.228Z,16.90
2022-09-15T18:05:58.641Z,16.90
2022-09-15T18:09:10.817Z,16.90
2022-09-15T18:11:36.893Z,16.90
2022-09-15T18:14:02.908Z,16.90
2022-09-15T18:16:28.995Z,16.90
2022-09-15T18:18:55.113Z,16.90
2022-09-15T18:24:29.315Z,16.80
2022-09-15T18:26:57.699Z,16.60
2022-09-15T18:29:23.774Z,16.40
2022-09-15T18:31:53.200Z,16.20
2022-09-15T18:34:20.030Z,16.10
2022-09-15T18:36:46.878Z,16.00
2022-09-15T18:39:13.104Z,15.90
2022-09-15T18:41:42.896Z,15.70
2022-09-15T18:44:09.134Z,15.60
2022-09-15T18:46:35.349Z,15.50
2022-09-15T18:49:02.594Z,15.40
2022-09-15T18:51:34.829Z,15.40
2022-09-15T18:54:15.314Z,15.40
2022-09-15T18:56:41.369Z,15.40
2022-09-15T18:59:17.513Z,15.30
2022-09-15T19:01:44.128Z,15.30
2022-09-15T19:04:14.415Z,15.30
2022-09-15T19:06:46.721Z,15.20
2022-09-15T19:09:16.325Z,15.30
2022-09-15T19:11:42.908Z,15.20
2022-09-15T19:14:09.021Z,15.20
2022-09-15T19:16:56.527Z,15.20
2022-09-15T19:19:21.805Z,15.20
2022-09-15T19:21:47.939Z,15.20
2022-09-15T19:24:15.434Z,15.20
2022-09-15T19:26:42.746Z,15.10
2022-09-15T19:29:08.975Z,15.10
2022-09-15T19:31:41.212Z,15.10
2022-09-15T19:34:08.410Z,15.00
2022-09-15T19:36:34.672Z,15.00
2022-09-15T19:39:02.918Z,14.90
2022-09-15T19:41:29.194Z,14.80
2022-09-15T19:43:55.743Z,14.70
2022-09-15T19:46:24.526Z,14.60
2022-09-15T19:48:51.704Z,14.60
2022-09-15T19:51:18.958Z,14.60
2022-09-15T19:53:45.924Z,14.70
2022-09-15T19:56:18.052Z,14.70
2022-09-15T19:58:45.473Z,14.70
2022-09-15T20:01:11.780Z,14.80
2022-09-15T20:03:39.344Z,14.70
2022-09-15T20:06:36.532Z,14.70
2022-09-15T20:09:03.524Z,14.70
2022-09-15T20:11:30.911Z,14.70
2022-09-15T20:13:57.218Z,14.70
2022-09-15T20:16:24.495Z,14.60
2022-09-15T20:18:53.280Z,14.60
2022-09-15T20:21:48.601Z,14.60
2022-09-15T20:24:15.941Z,14.50
2022-09-15T20:26:42.434Z,14.40
2022-09-15T20:29:10.311Z,14.40
2022-09-15T20:31:37.692Z,14.40
2022-09-15T20:34:04.371Z,14.40
2022-09-15T20:36:32.952Z,14.40
2022-09-15T20:39:00.635Z,14.40
2022-09-15T20:41:28.098Z,14.40
2022-09-15T20:43:58.992Z,14.40
2022-09-15T20:46:25.662Z,14.40
2022-09-15T20:48:52.086Z,14.30
2022-09-15T20:51:26.293Z,14.30
2022-09-15T20:53:55.107Z,14.20
2022-09-15T20:56:25.024Z,14.10
2022-09-15T20:58:56.418Z,14.00
2022-09-15T21:01:25.165Z,13.90
2022-09-15T21:03:51.658Z,13.80
2022-09-15T21:06:20.684Z,13.70
2022-09-15T21:08:48.294Z,13.70
2022-09-15T21:11:16.237Z,13.60
2022-09-15T21:13:43.805Z,13.60
2022-09-15T21:16:14.853Z,13.50
2022-09-15T21:18:42.519Z,13.40
2022-09-15T21:21:10.110Z,13.40
2022-09-15T21:23:37.359Z,13.50
2022-09-15T21:26:07.320Z,13.50
2022-09-15T21:28:34.931Z,13.40
2022-09-15T21:31:21.452Z,13.40
2022-09-15T21:33:48.754Z,13.30
2022-09-15T21:36:21.282Z,13.20
2022-09-15T21:38:48.637Z,13.30
2022-09-15T21:41:17.167Z,13.30
2022-09-15T21:43:45.527Z,13.20
2022-09-15T21:46:17.679Z,13.10
2022-09-15T21:48:46.691Z,13.00
2022-09-15T21:51:15.043Z,13.00
2022-09-15T21:53:42.525Z,13.00
2022-09-15T21:56:11.273Z,13.00
2022-09-15T21:58:42.997Z,13.10
2022-09-15T22:01:23.205Z,13.10
2022-09-15T22:03:58.105Z,13.10
2022-09-15T22:06:32.466Z,13.10
2022-09-15T22:08:59.962Z,13.20
2022-09-15T22:11:26.372Z,13.20
2022-09-15T22:13:52.782Z,13.20
2022-09-15T22:16:21.244Z,13.20
2022-09-15T22:18:48.236Z,13.20
2022-09-15T22:21:19.561Z,13.20
2022-09-15T22:23:47.112Z,13.20
2022-09-15T22:26:19.300Z,13.20
2022-09-15T22:28:45.678Z,13.20
2022-09-15T22:31:14.023Z,13.20
2022-09-15T22:33:41.883Z,13.10
2022-09-15T22:36:13.507Z,13.00
2022-09-15T22:38:39.787Z,13.00
2022-09-15T22:41:11.495Z,13.00
2022-09-15T22:43:39.290Z,13.00
2022-09-15T22:46:06.739Z,12.90
2022-09-15T22:48:33.472Z,12.90
2022-09-15T22:51:00.020Z,12.80
2022-09-15T22:53:26.473Z,12.70
2022-09-15T22:56:07.684Z,12.70
2022-09-15T22:58:35.089Z,12.70
2022-09-15T23:01:09.008Z,12.70
2022-09-15T23:03:35.984Z,12.80
2022-09-15T23:06:03.261Z,12.90
2022-09-15T23:08:29.924Z,12.90
2022-09-15T23:11:06.405Z,13.00
2022-09-15T23:13:33.328Z,13.00
2022-09-15T23:15:59.770Z,13.00
2022-09-15T23:18:26.657Z,13.00
2022-09-15T23:21:04.518Z,13.10
2022-09-15T23:23:30.740Z,13.10
2022-09-15T23:25:56.858Z,13.00
2022-09-15T23:28:23.235Z,12.90
2022-09-15T23:30:54.129Z,12.80
2022-09-15T23:33:21.587Z,12.70
2022-09-15T23:35:48.573Z,12.80
2022-09-15T23:38:15.426Z,12.70
2022-09-15T23:40:42.702Z,12.80
2022-09-15T23:43:10.151Z,12.80
2022-09-15T23:45:37.418Z,12.80
2022-09-15T23:48:04.849Z,12.80
2022-09-15T23:50:32.105Z,12.90
2022-09-15T23:52:58.833Z,12.90
2022-09-15T23:55:25.439Z,13.00
2022-09-15T23:57:51.982Z,13.00
